Airfield :
LOGIN :

Register | Disclaimer

   EN    FR    IT 

 










Legend :    VFR   Marginal VFR   IFR   Intensive IFR   Very Intensive IFR
Visi :
Ceiling :
>= 8 km
>= 3000ft
5 to 8 km
1000 to 3000 ft
1500m to 5 km
500 to 1000 ft
800 to 1500m
200 to 500 ft
< 800m
< 200 ft
Symbols :   Thunderstorms  Fog  Heavy snow  Heavy precipitations  Wind > 20 kt
SIGMETs :     Misc.  Thunderstorms  Icing  Turbulence  Mountain Waves  Volcanic Ashes






- Airport Elevation : 768 ft
- IATA code : MXP


LIMC - Milano Malpensa

CURRENT METAR :
  • 231520Z 19009KT 9999 BKN050 17/11 Q1016 TEMPO 4000 SHRA

EXPIRED METARs :
  • 231450Z 19006KT 9999 BKN050 19/12 Q1016 NOSIG
  • 231420Z VRB02KT 9999 BKN050 19/10 Q1016 NOSIG
  • 231350Z 36003KT 280V090 CAVOK 19/11 Q1016 NOSIG
  • 231320Z 09003KT 360V170 9999 SCT020 18/12 Q1016 NOSIG
  • 231250Z 35005KT 310V040 9999 SCT020 18/12 Q1016 NOSIG
  • 231220Z 03006KT 350V070 9999 SCT030 17/13 Q1016 NOSIG
  • 231150Z 36008KT 9999 SCT010 BKN080 16/13 Q1016 NOSIG
  • 231120Z VRB01KT 9999 -RA SCT010 BKN050 BKN100 15/13 Q1016 NOSIG
  • 231050Z 14003KT 110V190 9999 -RA SCT015 BKN060 14/12 Q1017 RESHRA NOSIG

TAF TAF LIMC
Valid from the 23 at 12:00 until the 24 at 18:00 UTC


231100Z 2312/2418 02010KT 9999 SCT015 BKN060
TEMPO 2312/2318 TSRA
BECMG 2315/2317 VRB05KT
TEMPO 2400/2404 4000 BR
TEMPO 2406/2409 SHRA
TEMPO 2409/2418 TSRA



MET'MAP, your aeronautical weather chart ! - Copyright ORBIFLY December 2007 - Disclaimer

ORBIFLY MET'MAP TEAM :

Programming & Development : Alexandra Zaïnal
Original concept : Baudouin d'Aumeries
Technical & hardware support : Manuel Goepfert
Assistance : Marc-Olivier Méhu




SOURCES & CREDITS :

   NOAA